Time;durP1;ratioP1;P1;durP2;ratioP2;P2;SDS_P1;SDS_P2;PMS_P1;PMS_P2;Temp;Humidity;BMP_temperature;BMP_pressure;BME280_temperature;BME280_humidity;BME280_pressure;Samples;Min_cycle;Max_cycle;Signal;HPM_P1;HPM_P2
2021/12/06 00:00:34;;;;;;;105.30;57.47;;;2.00;99.90;;;;;;5021800;28;20056;-73
2021/12/06 00:03:03;;;;;;;100.60;57.95;;;2.00;99.90;;;;;;5041440;28;20045;-73
2021/12/06 00:05:31;;;;;;;101.50;58.17;;;2.00;99.90;;;;;;5049543;28;20052;-73
2021/12/06 00:07:57;;;;;;;108.32;60.33;;;2.00;99.90;;;;;;5050946;28;20040;-73
2021/12/06 00:10:22;;;;;;;104.95;56.75;;;2.00;99.90;;;;;;5042794;28;20060;-73
2021/12/06 00:12:48;;;;;;;105.30;58.33;;;2.00;99.90;;;;;;5051955;28;20041;-73
2021/12/06 00:15:15;;;;;;;111.95;60.58;;;2.00;99.90;;;;;;5051688;28;20037;-73
2021/12/06 00:17:40;;;;;;;105.97;59.25;;;2.00;99.90;;;;;;5048593;28;20044;-73
2021/12/06 00:20:09;;;;;;;102.95;56.38;;;2.10;99.90;;;;;;5046041;28;20040;-74
2021/12/06 00:22:36;;;;;;;;;;;2.10;99.90;;;;;;5049959;28;20055;-73
2021/12/06 00:25:03;;;;;;;102.80;58.15;;;2.00;99.90;;;;;;5048684;28;20011;-73
2021/12/06 00:27:28;;;;;;;100.13;57.67;;;2.00;99.90;;;;;;5049329;28;20778;-73
2021/12/06 00:29:54;;;;;;;95.43;55.67;;;2.10;99.90;;;;;;5043603;28;20044;-73
2021/12/06 00:32:21;;;;;;;110.50;57.20;;;2.10;99.90;;;;;;5043113;28;20048;-73
2021/12/06 00:34:47;;;;;;;100.65;58.10;;;2.10;99.90;;;;;;5046704;28;20055;-73
2021/12/06 00:37:23;;;;;;;98.03;56.70;;;2.00;99.90;;;;;;5044255;28;20045;-73
2021/12/06 00:39:53;;;;;;;101.68;58.20;;;2.10;99.90;;;;;;5049071;28;20076;-73
2021/12/06 00:42:20;;;;;;;99.60;56.80;;;2.10;99.90;;;;;;5047252;28;20053;-73
2021/12/06 00:44:46;;;;;;;98.72;56.50;;;2.10;99.90;;;;;;5051640;28;20114;-73
2021/12/06 00:47:12;;;;;;;102.72;57.17;;;2.10;99.90;;;;;;5050192;28;20044;-73
2021/12/06 00:49:39;;;;;;;101.70;57.95;;;2.10;99.90;;;;;;5041626;28;20049;-73
2021/12/06 00:52:05;;;;;;;109.57;58.67;;;2.10;99.90;;;;;;5046259;28;20466;-73
2021/12/06 00:54:34;;;;;;;102.85;55.42;;;2.10;99.90;;;;;;5047991;28;20090;-73
2021/12/06 00:57:02;;;;;;;103.88;57.45;;;2.10;99.90;;;;;;5049412;28;20126;-73
2021/12/06 00:59:28;;;;;;;111.10;61.60;;;2.10;99.90;;;;;;5049331;28;20458;-73
2021/12/06 01:01:54;;;;;;;113.47;59.88;;;2.10;99.90;;;;;;5048703;28;20048;-73
2021/12/06 01:04:20;;;;;;;120.30;62.30;;;2.10;99.90;;;;;;5045990;28;20128;-73
2021/12/06 01:06:46;;;;;;;117.13;63.63;;;2.20;99.90;;;;;;5041528;28;20508;-73
2021/12/06 01:09:12;;;;;;;111.35;58.88;;;2.10;99.90;;;;;;5048184;28;20090;-73
2021/12/06 01:11:37;;;;;;;108.75;57.92;;;2.10;99.90;;;;;;5048287;28;20044;-73
2021/12/06 01:14:03;;;;;;;115.40;61.15;;;2.20;99.90;;;;;;5046837;28;20041;-73
2021/12/06 01:16:30;;;;;;;110.85;57.45;;;2.20;99.90;;;;;;5041918;28;20043;-73
2021/12/06 01:18:56;;;;;;;122.18;60.78;;;2.20;99.90;;;;;;5042434;28;20053;-73
2021/12/06 01:21:37;;;;;;;104.60;57.50;;;2.20;99.90;;;;;;5052060;28;20114;-73
2021/12/06 01:24:03;;;;;;;101.43;52.60;;;2.10;99.90;;;;;;5050738;28;20063;-73
2021/12/06 01:31:51;;;;;;;116.43;60.63;;;2.10;99.90;;;;;;5043492;28;20049;-73
2021/12/06 01:39:50;;;;;;;114.82;62.30;;;2.20;99.90;;;;;;5041437;28;20395;-74
2021/12/06 01:42:16;;;;;;;116.00;60.15;;;2.20;99.90;;;;;;5047151;28;20053;-73
2021/12/06 01:44:47;;;;;;;113.50;57.20;;;2.20;99.90;;;;;;5043520;28;20061;-73
2021/12/06 01:47:39;;;;;;;121.82;60.95;;;2.10;99.90;;;;;;5044458;28;20048;-73
2021/12/06 01:50:28;;;;;;;123.72;64.53;;;2.10;99.90;;;;;;5046884;28;20421;-73
2021/12/06 01:53:00;;;;;;;123.10;66.10;;;2.10;99.90;;;;;;5045012;28;20060;-73
2021/12/06 01:55:29;;;;;;;134.98;68.10;;;2.10;99.90;;;;;;5045331;28;20076;-73
2021/12/06 01:57:58;;;;;;;122.65;66.57;;;2.10;99.90;;;;;;5049209;28;20053;-73
2021/12/06 02:00:31;;;;;;;119.55;63.47;;;2.10;99.90;;;;;;5036288;28;20040;-73
2021/12/06 02:02:57;;;;;;;124.10;62.30;;;2.10;99.90;;;;;;5050099;28;20052;-73
2021/12/06 02:05:23;;;;;;;155.45;71.97;;;2.10;99.90;;;;;;5049336;28;20065;-73
2021/12/06 02:07:50;;;;;;;146.27;70.88;;;2.10;99.90;;;;;;5049580;28;20060;-73
2021/12/06 02:10:16;;;;;;;143.25;70.20;;;2.20;99.90;;;;;;5046181;28;20060;-73
2021/12/06 02:12:44;;;;;;;138.75;69.50;;;2.10;99.90;;;;;;5040177;28;20044;-73
2021/12/06 02:17:54;;;;;;;149.90;70.78;;;2.10;99.90;;;;;;5048336;28;20041;-73
2021/12/06 02:20:27;;;;;;;121.57;62.40;;;2.20;99.90;;;;;;5048838;28;20106;-73
2021/12/06 02:22:54;;;;;;;126.60;62.70;;;2.20;99.90;;;;;;5042676;28;20402;-73
2021/12/06 02:25:20;;;;;;;135.20;66.53;;;2.20;99.90;;;;;;5041846;28;20051;-73
2021/12/06 02:27:49;;;;;;;123.25;62.17;;;2.20;99.90;;;;;;5051187;28;20053;-73
2021/12/06 02:30:17;;;;;;;146.40;66.10;;;2.20;99.90;;;;;;5055115;28;20055;-73
2021/12/06 02:32:43;;;;;;;127.07;64.85;;;2.20;99.90;;;;;;5050424;28;20048;-73
2021/12/06 02:35:17;;;;;;;129.48;64.57;;;2.20;99.90;;;;;;5048643;28;20041;-73
2021/12/06 02:37:43;;;;;;;127.90;62.70;;;2.30;99.90;;;;;;5042326;28;20074;-73
2021/12/06 02:40:15;;;;;;;120.47;61.13;;;2.30;99.90;;;;;;5041343;28;20041;-73
2021/12/06 02:42:43;;;;;;;136.32;65.50;;;2.30;99.90;;;;;;5049030;28;20048;-73
2021/12/06 02:45:12;;;;;;;124.78;63.13;;;2.30;99.90;;;;;;5047953;28;20097;-73
2021/12/06 02:47:37;;;;;;;141.43;69.82;;;2.30;99.90;;;;;;5045342;28;20045;-73
2021/12/06 02:50:08;;;;;;;158.52;73.25;;;2.30;99.90;;;;;;5045886;28;20414;-73
2021/12/06 02:52:34;;;;;;;154.18;73.00;;;2.30;99.90;;;;;;5054367;28;20060;-73
2021/12/06 02:55:01;;;;;;;164.82;73.72;;;2.30;99.90;;;;;;5058025;28;20061;-73
2021/12/06 02:57:37;;;;;;;157.38;72.70;;;2.30;99.90;;;;;;5048803;28;20046;-73
2021/12/06 03:00:10;;;;;;;153.77;74.97;;;2.20;99.90;;;;;;5050601;28;20064;-73
2021/12/06 03:02:36;;;;;;;149.57;71.93;;;2.20;99.90;;;;;;5041426;28;20050;-73
2021/12/06 03:05:03;;;;;;;165.10;73.25;;;2.20;99.90;;;;;;5051055;28;20040;-73
2021/12/06 03:07:29;;;;;;;149.23;73.28;;;2.20;99.90;;;;;;5042129;28;20079;-73
2021/12/06 03:09:56;;;;;;;157.02;73.47;;;2.20;99.90;;;;;;5052470;28;20077;-73
2021/12/06 03:12:26;;;;;;;171.60;79.47;;;2.20;99.90;;;;;;5050674;28;20048;-73
2021/12/06 03:14:56;;;;;;;148.18;71.28;;;2.30;99.90;;;;;;5051868;28;20067;-73
2021/12/06 03:17:26;;;;;;;154.35;74.07;;;2.20;99.90;;;;;;5044689;28;20493;-73
2021/12/06 03:19:52;;;;;;;165.02;74.97;;;2.20;99.90;;;;;;5056262;28;20084;-73
2021/12/06 03:22:19;;;;;;;152.98;74.88;;;2.20;99.90;;;;;;5044625;28;20610;-73
2021/12/06 03:24:45;;;;;;;156.48;74.22;;;2.20;99.90;;;;;;5040893;28;20147;-73
2021/12/06 03:27:13;;;;;;;154.20;71.20;;;2.20;99.90;;;;;;5058685;28;20052;-73
2021/12/06 03:29:39;;;;;;;166.70;75.90;;;2.20;99.90;;;;;;5061681;28;20132;-73
2021/12/06 03:32:06;;;;;;;155.75;72.35;;;2.20;99.90;;;;;;5048242;28;20148;-73
2021/12/06 03:34:32;;;;;;;159.55;77.15;;;2.30;99.90;;;;;;5052269;28;20049;-73
2021/12/06 03:37:01;;;;;;;162.25;77.95;;;2.20;99.90;;;;;;5043775;28;20045;-73
2021/12/06 03:39:34;;;;;;;161.43;77.32;;;2.30;99.90;;;;;;5061377;28;20417;-73
2021/12/06 03:42:04;;;;;;;156.38;76.53;;;2.30;99.90;;;;;;5055834;28;20493;-73
2021/12/06 03:44:30;;;;;;;178.25;79.72;;;2.30;99.90;;;;;;5051400;28;20049;-73
2021/12/06 03:47:04;;;;;;;152.48;72.47;;;2.30;99.90;;;;;;5033990;28;20046;-73
2021/12/06 03:49:30;;;;;;;169.27;79.40;;;2.30;99.90;;;;;;5053392;28;20086;-73
2021/12/06 03:51:56;;;;;;;187.52;79.18;;;2.30;99.90;;;;;;5046985;28;20413;-73
2021/12/06 03:54:25;;;;;;;180.27;78.63;;;2.30;99.90;;;;;;5038384;28;20110;-73
2021/12/06 03:56:51;;;;;;;170.43;78.40;;;2.30;99.90;;;;;;5048616;28;20045;-73
2021/12/06 03:59:17;;;;;;;158.25;76.82;;;2.30;99.90;;;;;;5048645;28;20057;-73
2021/12/06 04:01:44;;;;;;;157.48;73.55;;;2.30;99.90;;;;;;5049320;28;20051;-73
2021/12/06 04:04:10;;;;;;;152.20;73.30;;;2.30;99.90;;;;;;5046559;28;20456;-73
2021/12/06 04:06:38;;;;;;;158.88;73.05;;;2.30;99.90;;;;;;5048061;28;20033;-73
2021/12/06 04:09:05;;;;;;;158.13;75.38;;;2.30;99.90;;;;;;5049605;28;20179;-73
2021/12/06 04:11:31;;;;;;;158.88;78.25;;;2.30;99.90;;;;;;5041126;28;20652;-73
2021/12/06 04:13:57;;;;;;;150.20;77.20;;;2.30;99.90;;;;;;5049153;28;20400;-73
2021/12/06 04:16:22;;;;;;;168.57;79.20;;;2.30;99.90;;;;;;5046512;28;20074;-73
2021/12/06 04:18:49;;;;;;;166.35;75.13;;;2.30;99.90;;;;;;5042392;28;20517;-73
2021/12/06 04:21:16;;;;;;;179.38;75.40;;;2.30;99.90;;;;;;5045088;28;20075;-73
2021/12/06 04:23:42;;;;;;;162.20;75.22;;;2.40;99.90;;;;;;5045987;28;20409;-73
2021/12/06 04:26:08;;;;;;;177.38;77.85;;;2.40;99.90;;;;;;5043895;28;20056;-73
2021/12/06 04:28:35;;;;;;;170.70;78.95;;;2.40;99.90;;;;;;5048949;28;20075;-73
2021/12/06 04:31:02;;;;;;;171.95;77.35;;;2.40;99.90;;;;;;5047024;28;20125;-73
2021/12/06 04:33:28;;;;;;;160.07;74.72;;;2.40;99.90;;;;;;5045687;28;20498;-73
2021/12/06 04:35:54;;;;;;;176.02;77.90;;;2.40;99.90;;;;;;5045318;28;20078;-73
2021/12/06 04:38:21;;;;;;;161.95;75.97;;;2.40;99.90;;;;;;5044007;28;20067;-73
2021/12/06 04:40:47;;;;;;;165.95;75.43;;;2.40;99.90;;;;;;5047420;28;20460;-73
2021/12/06 04:43:13;;;;;;;159.38;73.65;;;2.40;99.90;;;;;;5041430;28;20055;-73
2021/12/06 04:45:38;;;;;;;174.18;74.47;;;2.40;99.90;;;;;;5045927;28;20045;-73
2021/12/06 04:48:06;;;;;;;163.20;72.07;;;2.40;99.90;;;;;;5047873;28;20063;-73
2021/12/06 04:50:33;;;;;;;160.48;72.00;;;2.40;99.90;;;;;;5046471;28;20051;-73
2021/12/06 04:53:12;;;;;;;135.30;64.77;;;2.40;99.90;;;;;;5013513;28;1053482;-73
2021/12/06 04:55:41;;;;;;;145.95;65.10;;;2.40;99.90;;;;;;5070925;28;20041;-73
2021/12/06 04:58:08;;;;;;;;;;;2.40;99.90;;;;;;5055102;28;20140;-73
2021/12/06 05:00:48;;;;;;;150.63;68.68;;;2.30;99.90;;;;;;5047486;28;19931;-73
2021/12/06 05:03:15;;;;;;;142.13;69.18;;;2.40;99.90;;;;;;5051718;28;20052;-73
2021/12/06 05:05:45;;;;;;;149.88;67.47;;;2.30;99.90;;;;;;5053728;28;20044;-73
2021/12/06 05:08:18;;;;;;;161.57;71.93;;;2.30;99.90;;;;;;5050759;28;20053;-73
2021/12/06 05:10:44;;;;;;;164.02;71.90;;;2.40;99.90;;;;;;5047744;28;20048;-73
2021/12/06 05:13:12;;;;;;;154.95;69.25;;;2.30;99.90;;;;;;5048568;28;20053;-73
2021/12/06 05:15:38;;;;;;;130.45;60.72;;;2.30;99.90;;;;;;5048189;28;20151;-73
2021/12/06 05:18:05;;;;;;;148.43;68.38;;;2.40;99.90;;;;;;5047315;28;20053;-73
2021/12/06 05:20:30;;;;;;;156.30;70.57;;;2.40;99.90;;;;;;5051175;28;20037;-73
2021/12/06 05:22:57;;;;;;;150.65;67.53;;;2.40;99.90;;;;;;5042497;28;20048;-73
2021/12/06 05:25:25;;;;;;;152.80;68.43;;;2.40;99.90;;;;;;5057480;28;20072;-73
2021/12/06 05:27:51;;;;;;;158.85;66.97;;;2.40;99.90;;;;;;5049817;28;20490;-73
2021/12/06 05:30:20;;;;;;;153.82;68.63;;;2.40;99.90;;;;;;5049357;28;20052;-73
2021/12/06 05:32:46;;;;;;;151.88;68.10;;;2.40;99.90;;;;;;5046084;28;20053;-73
2021/12/06 05:35:12;;;;;;;166.48;71.10;;;2.40;99.90;;;;;;5040330;28;20363;-73
2021/12/06 05:37:43;;;;;;;180.02;76.63;;;2.40;99.90;;;;;;5044177;28;20058;-73
2021/12/06 05:40:14;;;;;;;164.90;71.70;;;2.40;99.90;;;;;;5044363;28;20098;-73
2021/12/06 05:42:40;;;;;;;185.45;79.35;;;2.40;99.90;;;;;;5047139;28;20041;-73
2021/12/06 05:45:07;;;;;;;162.52;69.97;;;2.50;99.90;;;;;;5039845;28;20045;-73
2021/12/06 05:47:33;;;;;;;175.35;74.53;;;2.50;99.90;;;;;;5045110;28;20060;-73
2021/12/06 05:49:58;;;;;;;177.05;73.82;;;2.40;99.90;;;;;;5052490;28;20029;-73
2021/12/06 05:52:24;;;;;;;177.75;73.97;;;2.40;99.90;;;;;;5046922;28;20758;-73
2021/12/06 05:54:50;;;;;;;209.00;84.15;;;2.40;99.90;;;;;;5041033;28;20048;-73
2021/12/06 05:57:17;;;;;;;188.55;75.90;;;2.40;99.90;;;;;;5052258;28;20041;-73
2021/12/06 05:59:43;;;;;;;183.85;76.00;;;2.40;99.90;;;;;;5051490;28;20127;-73
2021/12/06 06:02:10;;;;;;;163.77;72.68;;;2.40;99.90;;;;;;5033715;28;20044;-73
2021/12/06 06:04:37;;;;;;;149.93;67.53;;;2.40;99.90;;;;;;5052632;28;20045;-73
2021/12/06 06:07:03;;;;;;;157.93;71.13;;;2.50;99.90;;;;;;5046254;28;20061;-73
2021/12/06 06:09:29;;;;;;;138.07;64.45;;;2.40;99.90;;;;;;5051884;28;20051;-73
2021/12/06 06:11:55;;;;;;;155.07;67.53;;;2.50;99.90;;;;;;5042975;28;20049;-73
2021/12/06 06:14:21;;;;;;;151.82;65.35;;;2.40;99.90;;;;;;5038714;28;20059;-74
2021/12/06 06:16:48;;;;;;;167.55;69.95;;;2.40;99.90;;;;;;5039793;28;20060;-73
2021/12/06 06:19:22;;;;;;;161.02;68.07;;;2.40;99.90;;;;;;5039246;28;20466;-73
2021/12/06 06:21:49;;;;;;;156.73;71.85;;;2.40;99.90;;;;;;5043940;28;20051;-73
2021/12/06 06:24:15;;;;;;;150.68;67.35;;;2.40;99.90;;;;;;5050288;28;20041;-73
2021/12/06 06:26:41;;;;;;;160.15;68.68;;;2.40;99.90;;;;;;5050199;28;20076;-73
2021/12/06 06:29:07;;;;;;;168.75;69.72;;;2.40;99.90;;;;;;5049452;28;20040;-73
2021/12/06 06:31:33;;;;;;;177.30;73.35;;;2.40;99.90;;;;;;5050626;28;20052;-73
2021/12/06 06:33:59;;;;;;;186.00;74.70;;;2.40;99.90;;;;;;5047837;28;20076;-73
2021/12/06 06:36:25;;;;;;;167.85;70.95;;;2.40;99.90;;;;;;5040172;28;20064;-73
2021/12/06 06:38:50;;;;;;;173.95;73.35;;;2.40;99.90;;;;;;5042431;28;20041;-73
2021/12/06 06:41:16;;;;;;;179.70;75.38;;;2.50;99.90;;;;;;5044023;28;20053;-73
2021/12/06 06:43:42;;;;;;;183.50;72.93;;;2.40;99.90;;;;;;5039126;28;20072;-73
2021/12/06 06:46:07;;;;;;;164.23;71.63;;;2.50;99.90;;;;;;5046717;28;20056;-73
2021/12/06 06:48:34;;;;;;;169.27;72.10;;;2.40;99.90;;;;;;5048751;28;21096;-73
2021/12/06 06:51:00;;;;;;;169.20;70.85;;;2.50;99.90;;;;;;5050500;28;20490;-73
2021/12/06 06:53:29;;;;;;;178.82;69.95;;;2.40;99.90;;;;;;5046862;28;20110;-73
2021/12/06 06:55:56;;;;;;;158.13;66.85;;;2.40;99.90;;;;;;5048092;28;20059;-73
2021/12/06 06:58:22;;;;;;;171.00;72.95;;;2.40;99.90;;;;;;5053812;28;20178;-73
2021/12/06 07:00:47;;;;;;;164.77;69.88;;;2.40;99.90;;;;;;5049664;28;20409;-73
2021/12/06 07:03:13;;;;;;;171.02;71.05;;;2.40;99.90;;;;;;5044724;28;20068;-73
2021/12/06 07:05:39;;;;;;;157.98;69.32;;;2.40;99.90;;;;;;5046390;28;20087;-73
2021/12/06 07:08:05;;;;;;;182.45;70.97;;;2.40;99.90;;;;;;5045790;28;20107;-73
2021/12/06 07:10:31;;;;;;;161.73;68.13;;;2.40;99.90;;;;;;5043185;28;20049;-73
2021/12/06 07:12:59;;;;;;;166.43;67.32;;;2.40;99.90;;;;;;5030883;28;20047;-73
2021/12/06 07:15:31;;;;;;;154.65;63.30;;;2.40;99.90;;;;;;5047595;28;20123;-73
2021/12/06 07:17:58;;;;;;;157.90;65.25;;;2.40;99.90;;;;;;5027631;28;20088;-73
2021/12/06 07:20:24;;;;;;;153.50;64.70;;;2.40;99.90;;;;;;5044059;28;20041;-73
2021/12/06 07:22:52;;;;;;;148.95;63.70;;;2.40;99.90;;;;;;5036880;28;20509;-73
2021/12/06 07:25:19;;;;;;;137.43;62.58;;;2.40;99.90;;;;;;5043516;28;20140;-73
2021/12/06 07:27:45;;;;;;;135.52;61.97;;;2.40;99.90;;;;;;5049246;28;20045;-73
2021/12/06 07:30:13;;;;;;;147.65;63.95;;;2.40;99.90;;;;;;5041891;28;20033;-73
2021/12/06 07:32:40;;;;;;;134.98;58.75;;;2.40;99.90;;;;;;5039224;28;20049;-73
2021/12/06 07:35:07;;;;;;;130.77;57.92;;;2.40;99.90;;;;;;5044375;28;20041;-72
2021/12/06 07:37:33;;;;;;;117.38;53.95;;;2.40;99.90;;;;;;5047295;28;20629;-73
2021/12/06 07:39:59;;;;;;;114.95;53.92;;;2.40;99.90;;;;;;5047540;28;20123;-73
2021/12/06 07:42:25;;;;;;;119.32;55.42;;;2.40;99.90;;;;;;5040080;28;20041;-73
2021/12/06 07:44:51;;;;;;;123.30;54.13;;;2.40;99.90;;;;;;5044265;28;20045;-73
2021/12/06 07:47:17;;;;;;;140.20;57.97;;;2.40;99.90;;;;;;5045605;28;20052;-73
2021/12/06 07:49:44;;;;;;;130.10;57.85;;;2.40;99.90;;;;;;5050934;28;20528;-73
2021/12/06 07:52:10;;;;;;;138.30;58.35;;;2.40;99.90;;;;;;5048141;28;20502;-73
2021/12/06 07:54:36;;;;;;;122.55;54.97;;;2.40;99.90;;;;;;5050242;28;20859;-73
2021/12/06 07:57:03;;;;;;;125.85;55.35;;;2.40;99.90;;;;;;5054045;28;20048;-73
2021/12/06 07:59:29;;;;;;;120.18;55.83;;;2.40;99.90;;;;;;5049961;28;20045;-73
2021/12/06 08:01:55;;;;;;;120.82;56.22;;;2.40;99.90;;;;;;5052135;28;20041;-73
2021/12/06 08:04:21;;;;;;;135.32;57.25;;;2.40;99.90;;;;;;5055231;28;20109;-73
2021/12/06 08:06:47;;;;;;;120.75;55.90;;;2.50;99.90;;;;;;5050247;28;20032;-73
2021/12/06 08:09:14;;;;;;;109.32;51.95;;;2.50;99.90;;;;;;5039023;28;20053;-73
2021/12/06 08:11:41;;;;;;;97.82;49.33;;;2.60;99.90;;;;;;5046290;28;20111;-73
2021/12/06 08:14:07;;;;;;;110.18;52.10;;;2.50;99.90;;;;;;5057956;28;20044;-73
2021/12/06 08:16:42;;;;;;;110.10;54.47;;;2.50;99.90;;;;;;5052576;28;20091;-73
2021/12/06 08:19:09;;;;;;;106.90;50.70;;;2.50;99.90;;;;;;5052261;28;20037;-73
2021/12/06 08:21:35;;;;;;;102.30;47.65;;;2.50;99.90;;;;;;5052182;28;20071;-73
2021/12/06 08:24:02;;;;;;;105.68;49.40;;;2.50;99.90;;;;;;5049539;28;20490;-73
2021/12/06 08:26:33;;;;;;;100.73;50.70;;;2.50;99.90;;;;;;5045085;28;20053;-73
2021/12/06 08:29:00;;;;;;;93.22;47.85;;;2.60;99.90;;;;;;5055430;28;20150;-73
2021/12/06 08:31:29;;;;;;;99.57;46.70;;;2.60;99.90;;;;;;5043101;28;20120;-73
2021/12/06 08:33:56;;;;;;;103.40;49.92;;;2.60;99.90;;;;;;5048694;28;20049;-73
2021/12/06 08:36:22;;;;;;;97.40;48.03;;;2.60;99.90;;;;;;5052710;28;20071;-73
2021/12/06 08:38:49;;;;;;;92.35;48.25;;;2.60;99.90;;;;;;5054260;28;20071;-73
2021/12/06 08:41:18;;;;;;;92.57;46.03;;;2.60;99.90;;;;;;5051569;28;20029;-73
2021/12/06 08:43:48;;;;;;;93.70;46.80;;;2.50;99.90;;;;;;5045346;28;20064;-73
2021/12/06 08:46:20;;;;;;;99.45;50.40;;;2.50;99.90;;;;;;5035659;28;20042;-72
2021/12/06 08:48:50;;;;;;;105.40;50.58;;;2.50;99.90;;;;;;5032233;28;20110;-72
2021/12/06 08:51:25;;;;;;;92.60;46.50;;;2.50;99.90;;;;;;5054846;28;20065;-73
2021/12/06 08:53:52;;;;;;;94.40;45.17;;;2.50;99.90;;;;;;5036335;28;20141;-73
2021/12/06 08:56:17;;;;;;;79.80;44.90;;;2.50;99.90;;;;;;5039168;28;20048;-73
2021/12/06 08:58:44;;;;;;;88.65;46.53;;;2.50;99.90;;;;;;5052072;28;20398;-73
2021/12/06 09:01:11;;;;;;;93.20;46.85;;;2.50;99.90;;;;;;5050414;28;20051;-73
2021/12/06 09:03:37;;;;;;;103.13;49.40;;;2.50;99.90;;;;;;5046502;28;20491;-73
2021/12/06 09:06:06;;;;;;;92.97;48.17;;;2.60;99.90;;;;;;5049605;28;20045;-73
2021/12/06 09:08:33;;;;;;;98.47;49.47;;;2.60;99.90;;;;;;5047983;28;20056;-73
2021/12/06 09:11:00;;;;;;;93.65;48.17;;;2.60;99.90;;;;;;5048370;28;20036;-73
2021/12/06 09:13:28;;;;;;;86.45;44.20;;;2.60;99.90;;;;;;5042349;28;20044;-73
2021/12/06 09:15:56;;;;;;;86.75;42.58;;;2.60;99.90;;;;;;5054595;28;20405;-73
2021/12/06 09:18:22;;;;;;;90.43;46.72;;;2.60;99.90;;;;;;5069183;28;20099;-73
2021/12/06 09:20:50;;;;;;;83.97;46.85;;;2.50;99.90;;;;;;5053916;28;20044;-73
2021/12/06 09:23:17;;;;;;;94.60;47.22;;;2.50;99.90;;;;;;5049043;28;20059;-73
2021/12/06 09:25:45;;;;;;;76.22;41.72;;;2.60;99.90;;;;;;5061396;28;20441;-73
2021/12/06 09:28:13;;;;;;;89.85;43.92;;;2.50;99.90;;;;;;5045120;28;20049;-73
2021/12/06 09:30:39;;;;;;;85.73;47.10;;;2.60;99.90;;;;;;5053274;28;20041;-73
2021/12/06 09:33:09;;;;;;;89.10;43.45;;;2.50;99.90;;;;;;5048918;28;21012;-73
2021/12/06 09:35:38;;;;;;;89.35;44.22;;;2.50;99.90;;;;;;5058185;28;20049;-73
2021/12/06 09:38:05;;;;;;;95.75;46.75;;;2.50;99.90;;;;;;5045505;28;20072;-73
2021/12/06 09:40:34;;;;;;;84.18;44.08;;;2.60;99.90;;;;;;5056214;28;20053;-74
2021/12/06 09:43:00;;;;;;;;;;;2.60;99.90;;;;;;5045877;28;20498;-73
2021/12/06 09:45:32;;;;;;;97.15;45.40;;;2.50;99.90;;;;;;5046732;28;19925;-73
2021/12/06 09:48:00;;;;;;;94.93;45.70;;;2.50;99.90;;;;;;5049658;28;20083;-73
2021/12/06 09:50:32;;;;;;;107.40;49.20;;;2.60;99.90;;;;;;5045133;28;20051;-72
2021/12/06 09:53:02;;;;;;;104.40;47.88;;;2.60;99.90;;;;;;5048689;28;20318;-72
2021/12/06 09:55:29;;;;;;;100.90;48.90;;;2.70;99.90;;;;;;5045244;28;20044;-72
2021/12/06 09:57:55;;;;;;;96.82;46.22;;;2.70;99.90;;;;;;5047075;28;20056;-71
2021/12/06 10:00:27;;;;;;;94.60;48.10;;;2.70;99.90;;;;;;5052617;28;20064;-72
2021/12/06 10:02:54;;;;;;;95.53;47.42;;;2.80;99.90;;;;;;5054760;28;20076;-72
2021/12/06 10:05:20;;;;;;;93.45;48.42;;;2.80;99.90;;;;;;5047599;28;20053;-72
2021/12/06 10:07:46;;;;;;;95.97;49.50;;;2.80;99.90;;;;;;5053534;28;20052;-72
2021/12/06 10:10:14;;;;;;;103.30;48.92;;;2.80;99.90;;;;;;5046366;28;20053;-72
2021/12/06 10:12:43;;;;;;;101.20;50.07;;;2.90;99.90;;;;;;5042658;28;20477;-72
2021/12/06 10:15:09;;;;;;;115.45;51.95;;;2.90;99.90;;;;;;5045703;28;20051;-72
2021/12/06 10:17:35;;;;;;;114.82;59.10;;;3.00;99.90;;;;;;5045017;28;20466;-72
2021/12/06 10:20:03;;;;;;;114.55;56.97;;;2.90;99.90;;;;;;5046629;28;20088;-72
2021/12/06 10:22:29;;;;;;;128.60;60.37;;;2.90;99.90;;;;;;5048605;28;20080;-72
2021/12/06 10:24:58;;;;;;;113.63;58.92;;;2.90;99.90;;;;;;5041675;28;20366;-72
2021/12/06 10:27:24;;;;;;;122.50;65.55;;;2.90;99.90;;;;;;5047663;28;20069;-72
2021/12/06 10:30:00;;;;;;;123.03;59.97;;;2.90;99.90;;;;;;5033123;28;20052;-72
2021/12/06 10:32:29;;;;;;;115.25;58.83;;;3.00;99.90;;;;;;5040006;28;20045;-72
2021/12/06 10:35:04;;;;;;;;;;;3.00;99.90;;;;;;5047839;28;20045;-72
2021/12/06 10:37:46;;;;;;;94.68;48.85;;;3.00;99.90;;;;;;5038990;28;19927;-72
2021/12/06 10:40:22;;;;;;;97.10;49.67;;;3.00;99.90;;;;;;5055531;28;20048;-72
2021/12/06 10:42:50;;;;;;;92.85;47.97;;;3.00;99.90;;;;;;5047220;28;20056;-72
2021/12/06 10:45:28;;;;;;;84.40;44.83;;;2.90;99.90;;;;;;5039760;28;20055;-72
2021/12/06 10:48:20;;;;;;;81.70;44.70;;;3.00;99.90;;;;;;5045890;28;20049;-72
2021/12/06 10:51:11;;;;;;;69.75;38.78;;;3.00;99.90;;;;;;5046837;28;20041;-73
2021/12/06 10:53:47;;;;;;;70.28;36.85;;;3.00;99.90;;;;;;5048614;28;20092;-72
2021/12/06 10:56:20;;;;;;;79.18;39.35;;;3.00;99.90;;;;;;5063901;28;20061;-72
2021/12/06 10:58:48;;;;;;;70.03;39.25;;;3.00;99.90;;;;;;5059143;28;20037;-72
2021/12/06 11:01:18;;;;;;;76.40;38.55;;;3.00;99.90;;;;;;5048239;28;20481;-73
2021/12/06 11:03:48;;;;;;;62.47;34.42;;;3.10;99.90;;;;;;5046035;28;20045;-73
2021/12/06 11:06:19;;;;;;;64.40;37.00;;;3.20;99.90;;;;;;5048925;28;20397;-73
2021/12/06 11:08:47;;;;;;;71.95;37.42;;;3.20;99.90;;;;;;5044133;28;20124;-73
2021/12/06 11:11:19;;;;;;;60.75;35.38;;;3.30;99.90;;;;;;5051882;28;20049;-73
2021/12/06 11:13:49;;;;;;;61.20;31.98;;;3.30;99.90;;;;;;5046790;28;20094;-73
2021/12/06 11:16:18;;;;;;;55.67;30.77;;;3.30;99.90;;;;;;5046549;28;20128;-73
2021/12/06 11:18:52;;;;;;;55.35;32.33;;;3.20;99.90;;;;;;5045001;28;20706;-72
2021/12/06 11:21:25;;;;;;;54.42;32.42;;;3.20;99.90;;;;;;5043101;28;20041;-73
2021/12/06 11:24:02;;;;;;;64.00;36.20;;;3.30;99.90;;;;;;5062673;28;20049;-72
2021/12/06 11:26:29;;;;;;;58.15;33.20;;;3.30;99.90;;;;;;5049605;28;20052;-72
2021/12/06 11:28:55;;;;;;;59.75;34.10;;;3.30;99.90;;;;;;5052445;28;20429;-73
2021/12/06 11:31:21;;;;;;;58.33;33.83;;;3.30;99.90;;;;;;5048805;28;20056;-73
2021/12/06 11:34:02;;;;;;;56.47;35.10;;;3.40;99.90;;;;;;5055928;28;20119;-72
2021/12/06 11:36:30;;;;;;;55.30;32.63;;;3.40;99.90;;;;;;5050868;28;20053;-72
2021/12/06 11:38:58;;;;;;;;;;;3.30;99.90;;;;;;5048544;28;20414;-73
2021/12/06 11:41:24;;;;;;;54.75;31.92;;;3.30;99.90;;;;;;5061769;28;19920;-73
2021/12/06 11:43:49;;;;;;;58.10;32.00;;;3.30;99.90;;;;;;5051226;28;20111;-73
2021/12/06 11:46:28;;;;;;;50.45;31.58;;;3.30;99.90;;;;;;5050961;28;20041;-72
2021/12/06 11:48:53;;;;;;;57.35;32.78;;;3.50;99.90;;;;;;5043868;28;20040;-73
2021/12/06 11:51:19;;;;;;;66.13;37.05;;;3.50;99.90;;;;;;5049544;28;20171;-73
2021/12/06 11:53:52;;;;;;;58.90;34.40;;;3.40;99.90;;;;;;5053003;28;20559;-73
2021/12/06 11:56:28;;;;;;;65.57;36.53;;;3.50;99.90;;;;;;5058746;28;20068;-73
2021/12/06 11:58:59;;;;;;;63.55;35.88;;;3.50;99.90;;;;;;5041158;28;20045;-73
2021/12/06 12:01:33;;;;;;;75.38;40.47;;;3.50;99.90;;;;;;5046996;28;20045;-73
2021/12/06 12:04:12;;;;;;;81.70;39.45;;;3.50;99.90;;;;;;5053281;28;20410;-73
2021/12/06 12:06:43;;;;;;;69.25;37.17;;;3.50;99.90;;;;;;5048920;28;20124;-72
2021/12/06 12:09:13;;;;;;;68.68;39.25;;;3.50;99.90;;;;;;5040915;28;20631;-73
2021/12/06 12:12:04;;;;;;;71.18;40.60;;;3.60;99.90;;;;;;5049764;28;20386;-73
2021/12/06 12:14:31;;;;;;;72.80;41.72;;;3.60;99.90;;;;;;5041944;28;20547;-73
2021/12/06 12:16:59;;;;;;;67.13;39.95;;;3.60;99.90;;;;;;5052272;28;20056;-73
2021/12/06 12:19:25;;;;;;;64.40;36.27;;;3.60;99.90;;;;;;5041871;28;20091;-72
2021/12/06 12:21:50;;;;;;;69.60;38.67;;;3.70;99.90;;;;;;5036756;28;20441;-73
2021/12/06 12:24:16;;;;;;;62.08;38.28;;;3.70;99.90;;;;;;5043708;28;20059;-73
2021/12/06 12:26:52;;;;;;;64.78;35.40;;;3.70;99.90;;;;;;5056478;28;20133;-73
2021/12/06 12:29:24;;;;;;;68.90;36.58;;;3.70;99.90;;;;;;5054989;28;20049;-73
2021/12/06 12:31:54;;;;;;;63.40;36.70;;;3.70;99.90;;;;;;5041272;28;20413;-73
2021/12/06 12:34:22;;;;;;;71.38;38.28;;;3.70;99.90;;;;;;5039235;28;20051;-72
2021/12/06 12:36:48;;;;;;;72.65;38.88;;;3.70;99.90;;;;;;5040429;28;20050;-73
2021/12/06 12:39:17;;;;;;;66.13;38.85;;;3.70;99.90;;;;;;5045986;28;20052;-73
2021/12/06 12:41:55;;;;;;;78.80;40.92;;;3.70;99.90;;;;;;5042969;28;20053;-73
2021/12/06 12:44:21;;;;;;;71.88;42.10;;;3.70;99.90;;;;;;5058880;28;20044;-73
2021/12/06 12:46:48;;;;;;;79.35;42.60;;;3.70;99.90;;;;;;5039787;28;20052;-73
2021/12/06 12:49:19;;;;;;;76.97;43.28;;;3.70;99.90;;;;;;5051552;28;20052;-73